x

Halibut Bank (46146) Wave Buoy

12:00 - Tue 26th Jul 2016 All times are PDT. -7 hours from GMT.

  • Sig Wave height 1.3ft
  • Peak Period 4s
  • Wind
    7mph
  • Sea Temp 71°f
  • Aire Temp 65°f
  • Sea Pressure 1020.4mb
  • Halibut Bank
  • Halibut Bank

More Historic Weather Station data

Upgrade to MSW Pro to gain access to the past 30 days of data for over 8000 Wavebouys and Weather Stations around the globe.

Join Pro

Comparision Forecast

View Surf forecast
   
mar 07/26 12:00 1.3ft 4s 7
mph
1020.4mb 71f 65f
11:00 1.6ft 4s 7 9 mph 1020.6mb 69f 65f
10:00 1.6ft 3s 11 13 mph 1020.5mb 69f 64f
9:00 1.3ft 3s 11
mph
1020.3mb 70f 64f
8:00 1.3ft 3s 13
mph
1019.9mb 70f 64f
7:00 1.3ft 3s 13 16 mph 1019.3mb 70f 65f
6:00 1.6ft 3s 16 18 mph 1018.5mb 71f 65f
5:00 1.6ft 3s 13 18 mph 1018.1mb 71f 68f
4:00 1.3ft 3s 7 11 mph 1018mb 72f 70f
3:00 0.3ft 2s 11 13 mph 1017.7mb 72f 68f
2:00 0.3ft 5s 9
mph
1017.5mb 73f 69f
1:00 0.3ft 4s 7 9 mph 1017.1mb 73f 71f
12:00 0.3ft 4s 7
mph
1016.5mb 72f 72f
lun 07/25 11:00 0.3ft 2s 4
mph
1016.4mb 72f 72f
10:00 0.7ft 6s 4
mph
1016.2mb 75f 73f
9:00 0.3ft 6s 4 7 mph 1016mb 75f 72f
8:00 0.3ft 2s 2
mph
1015.9mb 76f 73f
7:00 0.7ft 7s 2
mph
1015.9mb 75f 74f
6:00 0.7ft 3s  -  2 mph 1016.2mb 76f 74f
5:00 0.7ft 3s  -  2 mph 1016.9mb 75f 72f
4:00 0.7ft 3s 2 4 mph 1017.2mb 75f 71f
3:00 0.7ft 3s  -  2 mph 1017.6mb 72f 71f
2:00 1ft 3s  -  2 mph 1017.9mb 72f 70f
1:00 1ft 3s 2
mph
1017.9mb 71f 69f
12:00 1ft 4s 4 7 mph 1018.2mb 71f 68f
11:00 1ft 3s  -  2 mph 1018.4mb 70f 69f
10:00 1ft 3s 7 9 mph 1018.2mb 69f 67f
9:00 1ft 3s 4 7 mph 1018.2mb 69f 68f
8:00 1ft 3s 7
mph
1017.8mb 69f 68f
7:00 1ft 3s 4
mph
1017.4mb 69f 68f
6:00 1ft 3s 4
mph
1017.2mb 69f 68f
5:00 1ft 3s 4 9 mph 1016.8mb 69f 69f
4:00 1ft 3s 2 4 mph 1016.7mb 69f 69f
3:00 0.3ft 2s 4
mph
1016.6mb 70f 69f
2:00 0.3ft 2s 4
mph
1016.4mb 70f 69f
1:00 0.3ft 3s 7 9 mph 1016.1mb 71f 69f
12:00 0.7ft 3s  -  2 mph 1016mb 71f 70f
dom 07/24 11:00 0.7ft 3s 7
mph
1015.8mb 70f 71f
10:00 1ft 3s 13 16 mph 1015.8mb 70f 72f
9:00 0.7ft 2s 11 13 mph 1015.7mb 70f 71f
8:00 0.7ft 2s 11 13 mph 1015.9mb 71f 73f
7:00 1ft 7s 11 13 mph 1016.1mb 72f 73f
6:00 0.7ft 5s 9
mph
1016.7mb 73f 72f
5:00 0.3ft 6s 9
mph
1017.4mb 72f 71f
4:00 0.3ft 4s 4 7 mph 1018.2mb 71f 70f
3:00 0.3ft 4s 4
mph
1018.7mb 71f 68f
2:00 0.7ft 4s 2
mph
1019.1mb 70f 68f
1:00 0.7ft 6s 4 7 mph 1019.6mb 69f 66f
12:00 0.3ft 5s 4
mph
1019.9mb 69f 66f
11:00 0.3ft 2s 2 4 mph 1020.3mb 69f 65f
10:00 0.3ft 2s 2 4 mph 1020.5mb 68f 65f
9:00 0.3ft 2s 4
mph
1020.7mb 68f 65f
8:00 0.3ft 4s 2 4 mph 1020.7mb 68f 65f
7:00 0.3ft 6s 2 4 mph 1020.8mb 68f 65f
6:00 0.3ft 2s 4 7 mph 1020.7mb 68f 65f
5:00 0.3ft 4s 7 9 mph 1020.7mb 68f 65f
4:00 0.3ft 2s 4 7 mph 1021.1mb 68f 65f
3:00 0.3ft 2s 9
mph
1021.3mb 69f 66f
2:00 0.3ft 2s 7 9 mph 1021.4mb 68f 67f
1:00 0.3ft 2s 9
mph
1021.7mb 69f 67f
12:00 0.3ft 5s 7 9 mph 1021.8mb 69f 67f
sáb 07/23 11:00 0.7ft 2s 4 7 mph 1022.1mb 69f 68f
10:00 0.7ft 2s 7 9 mph 1022.2mb 69f 68f
9:00 0.3ft 2s 9
mph
1022.2mb 70f 68f
8:00 0.7ft 6s 9
mph
1022.2mb 70f 68f
7:00 0.3ft 3s 7 9 mph 1022.5mb 71f 68f
6:00 0.3ft 3s 7
mph
1022.8mb 70f 68f
5:00 0.3ft 3s 7
mph
1023.6mb 72f 67f
4:00 0.3ft 3s 7
mph
1024.1mb 71f 67f
3:00 0.7ft 3s 4 7 mph 1024.4mb 73f 66f
2:00 0.7ft 3s  -  2 mph 1024.5mb 71f 66f
1:00 0.7ft 3s 2
mph
1024.7mb 70f 64f
12:00 0.7ft 2s 2 4 mph 1024.9mb 68f 64f
11:00 0.7ft 3s 4
mph
1024.8mb 67f 63f
10:00 0.7ft 3s 4 7 mph 1024.5mb 67f 62f
9:00 1ft 3s 7 9 mph 1024.5mb 68f 62f
8:00 1.3ft 3s 7 9 mph 1024.1mb 68f 62f
7:00 1.3ft 3s 9 11 mph 1023.6mb 68f 62f
6:00 1.3ft 3s 13 16 mph 1023.5mb 68f 62f
5:00 1.3ft 3s 13 16 mph 1023.3mb 68f 63f
4:00 1.6ft 3s 13 16 mph 1023.4mb 69f 63f
3:00 2ft 3s 16 18 mph 1023.2mb 68f 64f
2:00 1.3ft 3s 18 20 mph 1023.2mb 69f 64f
1:00 1ft 3s 18 20 mph 1023mb 69f 65f
12:00 1ft 3s 7 9 mph 1022.9mb 69f 68f
vie 07/22 11:00 0.7ft 2s 9 13 mph 1022.7mb 70f 68f
10:00 1ft 3s 4 9 mph 1022.5mb 70f 69f
9:00 1ft 3s 2 4 mph 1022.1mb 70f 69f